Latest Weather Observations for Bridgetown

IDW60801

Issued at 8:04 am WST Monday 26 January 2015 (issued every 30 minutes, with the page automatically refreshed every 10 minutes)

About weather observations | Map of weather stations | Latest weather observations for WA | Other Formats
Station Details ID: 009617 Name: BRIDGETOWN Lat: -33.95 Lon: 116.13 Height: 178.66 m
Data from the previous 72 hours. | See also: Recent months at Bridgetown
Date/Time
WST
Temp
°C
App
Temp
°C
Dew
Point
Rel
Hum
%
Delta-T
°C
Wind Press
QNH
hPa
Press
MSL
hPa
Rain
since 9 am
mm
Dir
 
Spd
km/h
Gust
km/h
Spd
kts
Gust
kts
26/08:00am 16.6 16.2 16.3 98 0.2 E 13 30 7 16 1018.4 1017.8 0.0
26/07:30am 15.4 15.4 15.1 98 0.2 ESE 9 22 5 12 1018.6 1018.0 0.0
26/07:00am 14.2 13.4 13.9 98 0.2 SE 11 19 6 10 1018.7 1018.1 0.0
26/06:30am 12.9 12.4 12.6 98 0.2 SSE 7 11 4 6 1018.9 1018.3 0.0
26/06:00am 11.7 11.0 11.4 98 0.2 SSE 6 13 3 7 1018.9 1018.3 0.0
26/05:30am 11.3 10.9 11.0 98 0.2 S 4 9 2 5 1018.8 1018.2 0.0
26/05:00am 11.3 10.9 11.0 98 0.2 SE 4 9 2 5 1018.5 1017.9 0.0
26/04:30am 11.4 11.0 11.1 98 0.2 SSE 4 9 2 5 1018.4 1017.8 0.0
26/04:00am 11.6 11.3 11.3 98 0.2 SSE 4 7 2 4 1018.3 1017.6 0.0
26/03:30am 12.1 11.9 11.8 98 0.2 SSE 4 9 2 5 1018.4 1017.8 0.0
26/03:00am 12.5 12.0 12.2 98 0.2 SSE 6 9 3 5 1018.6 1018.0 0.0
26/02:30am 12.8 12.4 12.5 98 0.2 SE 6 9 3 5 1018.5 1017.9 0.0
26/02:00am 13.3 12.9 13.0 98 0.2 ESE 7 13 4 7 1018.6 1018.0 0.0
26/01:30am 13.6 13.5 13.3 98 0.2 SE 6 15 3 8 1018.7 1018.1 0.0
26/01:00am 13.9 14.3 13.6 98 0.2 SE 4 9 2 5 1018.7 1018.1 0.0
26/12:30am 14.3 13.9 14.0 98 0.2 SE 9 17 5 9 1018.7 1018.1 0.0
26/12:00am 14.9 14.3 14.6 98 0.2 SE 11 20 6 11 1018.9 1018.3 0.0
 
Date/Time
WST
Temp
°C
App
Temp
°C
Dew
Point
Rel
Hum
%
Delta-T
°C
Wind Press
QNH
hPa
Press
MSL
hPa
Rain
since 9 am
mm
Dir
 
Spd
km/h
Gust
km/h
Spd
kts
Gust
kts
25/11:30pm 15.5 16.1 15.2 98 0.2 ESE 6 13 3 7 1018.8 1018.2 0.0
25/11:00pm 16.4 17.1 16.1 98 0.2 ESE 7 19 4 10 1018.5 1017.9 0.0
25/10:30pm 17.3 17.2 17.0 98 0.2 SE 13 24 7 13 1018.4 1017.8 0.0
25/10:00pm 17.7 18.5 17.4 98 0.2 SSE 9 19 5 10 1018.3 1017.6 0.0
25/09:30pm 18.3 18.6 18.0 98 0.2 SE 13 26 7 14 1018.1 1017.4 0.0
25/09:00pm 19.0 19.3 18.7 98 0.2 SE 15 24 8 13 1017.9 1017.2 0.0
25/08:30pm 20.1 21.3 19.8 98 0.2 SSE 13 22 7 12 1017.6 1016.9 0.0
25/08:00pm 21.4 22.8 21.1 98 0.2 SSE 15 24 8 13 1017.0 1016.3 0.0
25/07:30pm 22.8 24.9 22.5 98 0.2 SE 15 24 8 13 1016.6 1015.9 0.0
25/07:00pm 24.7 27.6 24.4 98 0.2 SE 17 30 9 16 1016.1 1015.4 0.0
25/06:30pm 26.7 32.0 26.4 98 0.2 ESE 11 20 6 11 1015.9 1015.2 0.0
25/06:00pm 27.3 32.6 27.0 98 0.2 E 13 32 7 17 1015.6 1014.9 0.0
25/05:30pm 27.8 33.1 27.5 98 0.2 ESE 15 24 8 13 1015.5 1014.8 0.0
25/05:00pm 28.2 34.5 27.9 98 0.2 ENE 11 19 6 10 1015.6 1014.9 0.0
25/04:30pm 28.7 35.8 28.4 98 0.2 ESE 9 26 5 14 1015.9 1015.2 0.0
25/04:00pm 27.9 33.2 27.6 98 0.2 ESE 15 24 8 13 1016.1 1015.4 0.0
25/03:30pm 28.1 33.6 27.8 98 0.2 E 15 33 8 18 1016.5 1015.8 0.0
25/03:00pm 28.0 34.2 27.7 98 0.2 ESE 11 24 6 13 1016.8 1016.1 0.0
25/02:30pm 27.0 32.9 26.7 98 0.2 E 9 17 5 9 1017.0 1016.3 0.0
25/02:00pm 27.1 33.0 26.8 98 0.2 ESE 9 20 5 11 1017.4 1016.7 0.0
25/01:30pm 26.5 30.9 26.2 98 0.2 SE 15 26 8 14 1017.5 1016.8 0.0
25/01:00pm 26.5 31.3 26.2 98 0.2 ESE 13 30 7 16 1017.9 1017.2 0.0
25/12:30pm 24.3 27.3 24.0 98 0.2 ENE 15 30 8 16 1018.1 1017.4 0.0
25/12:00pm 24.6 28.5 24.3 98 0.2 ESE 11 20 6 11 1018.5 1017.9 0.0
25/11:30am 23.7 26.4 23.4 98 0.2 ESE 15 32 8 17 1019.0 1018.4 0.0
25/11:00am 22.2 24.0 21.9 98 0.2 ESE 15 24 8 13 1019.3 1018.7 0.0
25/10:30am 22.2 23.6 21.9 98 0.2 SE 17 32 9 17 1019.7 1019.1 0.0
25/10:00am 21.0 21.8 20.7 98 0.2 E 17 28 9 15 1020.1 1019.5 0.0
25/09:30am 19.4 19.5 19.1 98 0.2 SE 17 32 9 17 1020.2 1019.6 0.0
25/09:00am 19.2 19.2 18.9 98 0.2 E 17 26 9 14 1020.4 1019.8 0.0
25/08:30am 18.9 19.5 18.6 98 0.2 ESE 13 24 7 13 1020.3 1019.7 0.0
25/08:00am 17.9 18.1 17.6 98 0.2 ESE 13 24 7 13 1020.3 1019.7 0.0
25/07:30am 16.4 16.0 16.1 98 0.2 SE 13 20 7 11 1020.4 1019.8 0.0
25/07:00am 14.6 14.8 14.3 98 0.2 SSE 6 11 3 6 1020.1 1019.5 0.0
25/06:30am 11.1 11.4 10.8 98 0.2 CALM 0 0 0 0 1020.0 1019.4 0.0
25/06:00am 9.2 9.0 8.9 98 0.1 CALM 0 0 0 0 1019.8 1019.2 0.0
25/05:30am 9.1 8.8 8.8 98 0.1 CALM 0 0 0 0 1019.6 1019.0 0.0
25/05:00am 9.5 9.3 9.2 98 0.1 CALM 0 0 0 0 1019.2 1018.6 0.0
25/04:30am 11.1 11.4 10.8 98 0.2 CALM 0 0 0 0 1018.9 1018.3 0.0
25/04:00am 11.5 11.9 11.2 98 0.2 CALM 0 2 0 1 1018.8 1018.2 0.0
25/03:30am 12.3 12.2 12.0 98 0.2 S 4 6 2 3 1018.9 1018.3 0.0
25/03:00am 12.0 12.5 11.7 98 0.2 CALM 0 2 0 1 1018.6 1018.0 0.0
25/02:30am 12.1 12.7 11.8 98 0.2 CALM 0 0 0 0 1018.8 1018.2 0.0
25/02:00am 12.7 12.7 12.4 98 0.2 SSE 4 6 2 3 1018.5 1017.9 0.0
25/01:30am 13.2 13.0 12.9 98 0.2 SSE 6 7 3 4 1018.6 1018.0 0.0
25/01:00am 13.6 13.9 13.3 98 0.2 SE 4 7 2 4 1018.6 1018.0 0.0
25/12:30am 14.0 14.0 13.7 98 0.2 SE 6 13 3 7 1018.7 1018.1 0.0
25/12:00am 14.4 14.4 14.1 98 0.2 SE 7 11 4 6 1018.9 1018.3 0.0
 
Date/Time
WST
Temp
°C
App
Temp
°C
Dew
Point
Rel
Hum
%
Delta-T
°C
Wind Press
QNH
hPa
Press
MSL
hPa
Rain
since 9 am
mm
Dir
 
Spd
km/h
Gust
km/h
Spd
kts
Gust
kts
24/11:30pm 14.8 14.2 14.5 98 0.2 SSE 11 20 6 11 1018.8 1018.2 0.0
24/11:00pm 15.0 14.8 14.7 98 0.2 SE 9 15 5 8 1018.8 1018.2 0.0
24/10:30pm 15.5 15.1 15.2 98 0.2 SE 11 17 6 9 1018.6 1018.0 0.0
24/10:00pm 15.7 15.4 15.4 98 0.2 SSE 11 19 6 10 1018.7 1018.1 0.0
24/09:30pm 16.3 15.8 16.0 98 0.2 SSE 13 28 7 15 1018.5 1017.9 0.0
24/09:00pm 16.8 16.5 16.5 98 0.2 SSE 13 22 7 12 1018.3 1017.6 0.0
24/08:30pm 17.6 17.3 17.3 98 0.2 SSE 15 24 8 13 1017.9 1017.2 0.0
24/08:00pm 18.6 19.1 18.3 98 0.2 S 13 22 7 12 1017.5 1016.8 0.0
24/07:30pm 19.4 19.8 19.1 98 0.2 S 15 24 8 13 1017.1 1016.4 0.0
24/07:00pm 20.7 21.8 20.4 98 0.2 S 15 20 8 11 1016.9 1016.2 0.0
24/06:30pm 21.6 23.5 21.3 98 0.2 S 13 24 7 13 1016.5 1015.8 0.0
24/06:00pm 22.4 24.0 22.1 98 0.2 S 17 30 9 16 1016.2 1015.5 0.0
24/05:30pm 22.9 24.3 22.6 98 0.2 SSE 19 30 10 16 1016.0 1015.3 0.0
24/05:00pm 23.4 25.9 23.1 98 0.2 S 15 26 8 14 1016.0 1015.3 0.0
24/04:30pm 25.0 28.4 24.7 98 0.2 S 15 22 8 12 1016.0 1015.3 0.0
24/04:00pm 25.5 30.0 25.2 98 0.2 S 11 19 6 10 1016.0 1015.3 0.0
24/03:30pm 26.1 30.6 25.8 98 0.2 SSE 13 28 7 15 1015.9 1015.2 0.0
24/03:00pm 26.0 30.8 25.7 98 0.2 SSE 11 20 6 11 1016.1 1015.4 0.0
24/02:30pm 25.9 30.3 25.6 98 0.2 SSE 13 22 7 12 1016.2 1015.5 0.0
24/02:00pm 26.3 31.7 26.0 98 0.2 S 9 17 5 9 1016.3 1015.6 0.0
24/01:30pm 25.3 29.7 25.0 98 0.2 SSW 11 28 6 15 1016.4 1015.7 0.0
24/01:00pm 25.0 29.6 24.7 98 0.2 S 9 19 5 10 1016.7 1016.0 0.0
24/12:30pm 22.8 25.7 22.5 98 0.2 ESE 11 19 6 10 1016.9 1016.2 0.0
24/12:00pm 23.3 26.9 23.0 98 0.2 S 9 17 5 9 1017.4 1016.7 0.0
24/11:30am 23.9 27.4 23.6 98 0.2 SSE 11 20 6 11 1017.7 1017.0 0.0
24/11:00am 22.6 25.4 22.3 98 0.2 SSE 11 20 6 11 1017.9 1017.2 0.0
24/10:30am 21.7 24.0 21.4 98 0.2 S 11 20 6 11 1018.3 1017.6 0.0
24/10:00am 20.7 22.5 20.4 98 0.2 SE 11 20 6 11 1018.6 1018.0 0.0
24/09:30am 18.4 19.2 18.1 98 0.2 SSE 11 20 6 11 1018.8 1018.2 0.0
24/09:00am 18.5 18.5 18.2 98 0.2 SSE 15 26 8 14 1018.8 1018.2 0.0
24/08:30am 17.9 18.5 17.6 98 0.2 SE 11 22 6 12 1018.7 1018.1 0.0
24/08:00am 17.2 18.8 16.9 98 0.2 ESE 4 7 2 4 1018.5 1017.9 0.0
24/07:30am 13.1 14.0 12.8 98 0.2 CALM 0 0 0 0 1018.6 1018.0 0.0
24/07:00am 11.3 11.6 11.0 98 0.2 CALM 0 0 0 0 1018.3 1017.6 0.0
24/06:30am 9.2 9.0 8.9 98 0.1 CALM 0 0 0 0 1018.1 1017.4 0.0
24/06:00am 8.9 8.6 8.6 98 0.1 CALM 0 0 0 0 1017.7 1017.0 0.0
24/05:30am 7.9 7.3 7.6 98 0.1 CALM 0 0 0 0 1017.4 1016.7 0.0
24/05:00am 7.8 7.2 7.5 98 0.1 CALM 0 0 0 0 1017.1 1016.4 0.0
24/04:30am 7.9 7.3 7.6 98 0.1 CALM 0 0 0 0 1016.7 1016.0 0.0
24/04:00am 8.5 8.1 8.2 98 0.1 CALM 0 0 0 0 1016.6 1015.9 0.0
24/03:30am 8.1 7.6 7.8 98 0.1 CALM 0 0 0 0 1016.4 1015.7 0.0
24/03:00am 8.6 8.2 8.3 98 0.1 CALM 0 0 0 0 1016.4 1015.7 0.0
24/02:30am 8.8 8.5 8.7 99 0.0 CALM 0 0 0 0 1016.5 1015.8 0.0
24/02:00am 9.1 8.9 9.0 99 0.0 CALM 0 0 0 0 1016.5 1015.8 0.0
24/01:30am 9.9 9.9 9.8 99 0.1 CALM 0 0 0 0 1016.6 1015.9 0.0
24/01:00am 10.4 10.5 10.2 99 0.1 CALM 0 0 0 0 1016.9 1016.2 0.0
24/12:30am 11.5 11.9 11.3 99 0.1 CALM 0 0 0 0 1016.9 1016.2 0.0
24/12:00am 11.7 12.1 11.4 98 0.2 CALM 0 0 0 0 1017.1 1016.4 0.0
 
Date/Time
WST
Temp
°C
App
Temp
°C
Dew
Point
Rel
Hum
%
Delta-T
°C
Wind Press
QNH
hPa
Press
MSL
hPa
Rain
since 9 am
mm
Dir
 
Spd
km/h
Gust
km/h
Spd
kts
Gust
kts
23/11:30pm 13.2 13.5 12.3 94 0.5 S 2 4 1 2 1017.0 1016.3 0.0
23/11:00pm 14.2 14.2 12.4 89 1.0 S 4 6 2 3 1017.1 1016.4 0.0
23/10:30pm 14.7 14.7 12.4 86 1.3 S 4 7 2 4 1017.2 1016.5 0.0
23/10:00pm 15.1 14.5 12.2 83 1.6 S 7 13 4 7 1017.2 1016.5 0.0
23/09:30pm 15.5 15.1 12.3 81 1.8 S 6 11 3 6 1017.3 1016.6 0.0
23/09:00pm 15.8 14.5 12.4 80 1.9 S 11 19 6 10 1017.0 1016.3 0.0
23/08:30pm 16.0 14.6 12.2 78 2.1 S 11 19 6 10 1016.9 1016.2 0.0
23/08:00pm 16.9 14.7 12.2 74 2.6 S 15 24 8 13 1016.8 1016.1 0.0
23/07:30pm 18.2 15.8 11.5 65 3.7 S 15 24 8 13 1016.3 1015.6 0.0
23/07:00pm 20.1 17.6 11.1 56 5.0 S 15 24 8 13 1015.9 1015.2 0.0
23/06:30pm 21.6 18.7 11.0 51 5.9 S 17 26 9 14 1015.5 1014.8 0.0
23/06:00pm 23.5 20.4 10.2 43 7.4 SSW 17 24 9 13 1015.0 1014.3 0.0
23/05:30pm 25.4 22.2 8.4 34 9.2 S 15 26 8 14 1014.6 1014.0 0.0
23/05:00pm 26.3 23.2 8.8 33 9.6 SSW 15 24 8 13 1014.3 1013.7 0.0
23/04:30pm 26.8 23.1 7.8 30 10.3 S 17 28 9 15 1014.2 1013.6 0.0
23/04:00pm 28.2 25.6 9.5 31 10.5 S 13 22 7 12 1014.2 1013.6 0.0
23/03:30pm 28.2 25.4 9.9 32 10.3 SSW 15 26 8 14 1014.3 1013.7 0.0
23/03:00pm 29.6 27.7 9.2 28 11.4 S 9 15 5 8 1014.5 1013.9 0.0
23/02:30pm 29.2 26.1 7.2 25 11.9 SSE 13 22 7 12 1014.8 1014.1 0.0
23/02:00pm 27.5 25.1 6.8 27 11.0 SW 9 19 5 10 1014.9 1014.2 0.0
23/01:30pm 28.2 25.4 5.1 23 12.0 S 9 17 5 9 1015.2 1014.5 0.0
23/01:00pm 27.3 25.4 7.7 29 10.6 SW 7 15 4 8 1015.6 1014.9 0.0
23/12:30pm 26.6 24.3 7.6 30 10.2 SSW 9 17 5 9 1016.1 1015.4 0.0
23/12:00pm 26.4 24.3 8.4 32 9.8 S 9 17 5 9 1016.4 1015.7 0.0
23/11:30am 24.0 22.3 8.4 37 8.4 ESE 7 15 4 8 1016.6 1015.9 0.0
23/11:00am 24.1 22.7 8.9 38 8.2 S 6 17 3 9 1016.7 1016.0 0.0
23/10:30am 21.8 20.9 9.3 45 6.7 WSW 4 11 2 6 1017.3 1016.6 0.0
23/10:00am 20.8 19.5 10.0 50 5.9 S 7 13 4 7 1017.5 1016.8 0.0
23/09:30am 19.6 18.5 10.6 56 4.9 NNE 7 11 4 6 1017.7 1017.0 0.0
23/09:00am 19.3 18.2 10.8 58 4.6 S 7 13 4 7 1017.8 1017.1 0.0
23/08:30am 18.3 17.3 11.1 63 3.9 S 7 15 4 8 1017.9 1017.2 0.0

Other Formats:

Comma delimited format used in spreadsheet applications
http://www.bom.gov.au/fwo/IDW60801/IDW60801.95632.axf

JavaScript Object Notation format (JSON) in row-major order
http://www.bom.gov.au/fwo/IDW60801/IDW60801.95632.json